Blind River, Canada
Current Conditions -  °F | °C
As of 2:32 PM on Friday 31 Oct 2014 (Local Time) from CYZE Reporting Station
Overcast Overcast  
Wind Chill: 22°   Ceiling: 2500
Heat Index: 34°   Visibility: 9mi
Dew Point: 27°   Wind: 22mph
Humidity: 75%   Direction: 30°NNE
Pressure: 30.13"   Gusts: 37mph
Location:  46.18°N, 82.95°W
Report Text: CYZE 311832Z AUTO 03019G32KT 9SM BKN025 OVC032 01/M03 A3013 RMK ICG PAST HR SLP210
Loading
Personal Weather Stations






























Interactive Weather Map
Tropical Storm Tracking
New forecast layout! Learn more

10-Day Weather Forecast

Advertisements
Track Severe Weather on mobile